createdAt,value
2023-04-19T00:02:28.917Z,84.33
2023-04-19T00:07:28.799Z,82.42
2023-04-19T00:12:28.785Z,80.25
2023-04-19T00:17:29.610Z,80.28
2023-04-19T00:22:28.582Z,78.17
2023-04-19T00:27:31.645Z,78.38
2023-04-19T00:32:28.490Z,78.86
2023-04-19T00:37:28.574Z,77.35
2023-04-19T00:42:28.321Z,77.15
2023-04-19T00:47:28.349Z,76.33
2023-04-19T00:52:28.217Z,76.43
2023-04-19T00:57:28.234Z,75.65
2023-04-19T01:02:28.326Z,75.10
2023-04-19T01:07:28.077Z,75.04
2023-04-19T01:12:27.926Z,74.60
2023-04-19T01:17:27.957Z,73.23
2023-04-19T01:22:27.834Z,73.27
2023-04-19T01:27:30.823Z,73.68
2023-04-19T01:32:27.777Z,73.54
2023-04-19T01:37:27.712Z,73.13
2023-04-19T01:42:27.576Z,72.31
2023-04-19T01:47:27.566Z,72.31
2023-04-19T01:52:27.456Z,73.13
2023-04-19T01:57:27.404Z,72.31
2023-04-19T02:02:27.381Z,72.72
2023-04-19T02:07:27.311Z,72.03
2023-04-19T02:12:27.167Z,72.11
2023-04-19T02:17:27.252Z,72.14
2023-04-19T02:22:27.059Z,74.36
2023-04-19T02:27:30.117Z,74.15
2023-04-19T02:32:26.947Z,75.01
2023-04-19T02:37:26.920Z,75.04
2023-04-19T02:42:26.855Z,75.56
2023-04-19T02:47:26.885Z,75.52
2023-04-19T02:52:26.683Z,75.45
2023-04-19T02:57:26.616Z,75.83
2023-04-19T03:02:26.743Z,75.87
2023-04-19T03:07:26.482Z,76.72
2023-04-19T03:12:26.384Z,75.59
2023-04-19T03:17:26.397Z,77.06
2023-04-19T03:22:26.351Z,76.48
2023-04-19T03:27:29.292Z,76.48
2023-04-19T03:32:26.288Z,76.45
2023-04-19T03:37:26.049Z,75.63
2023-04-19T03:42:28.270Z,75.49
2023-04-19T03:47:26.176Z,75.18
2023-04-19T03:52:25.895Z,75.52
2023-04-19T03:57:25.874Z,75.22
2023-04-19T04:02:25.945Z,75.01
2023-04-19T04:07:25.660Z,73.78
2023-04-19T04:12:25.692Z,74.29
2023-04-19T04:17:25.712Z,72.54
2023-04-19T04:22:25.547Z,72.09
2023-04-19T04:27:28.412Z,72.03
2023-04-19T04:32:25.402Z,73.33
2023-04-19T04:37:25.355Z,72.16
2023-04-19T04:42:25.269Z,72.13
2023-04-19T04:47:25.199Z,71.72
2023-04-19T04:52:25.084Z,70.42
2023-04-19T04:57:32.717Z,69.84
2023-04-19T05:02:25.028Z,69.84
2023-04-19T05:07:25.172Z,69.59
2023-04-19T05:12:24.779Z,69.66
2023-04-19T05:17:24.859Z,69.66
2023-04-19T05:22:24.715Z,69.59
2023-04-19T05:27:27.649Z,68.46
2023-04-19T05:32:24.901Z,68.74
2023-04-19T05:37:24.571Z,67.36
2023-04-19T05:42:24.664Z,67.23
2023-04-19T05:47:24.486Z,65.38
2023-04-19T05:52:24.314Z,65.38
2023-04-19T05:57:24.253Z,65.80
2023-04-19T06:02:24.460Z,62.31
2023-04-19T06:07:31.766Z,62.18
2023-04-19T06:12:25.069Z,62.73
2023-04-19T06:17:24.000Z,61.41
2023-04-19T06:22:23.897Z,62.81
2023-04-19T06:27:26.876Z,62.48
2023-04-19T06:32:23.739Z,63.09
2023-04-19T06:37:23.724Z,61.62
2023-04-19T06:42:23.597Z,61.60
2023-04-19T06:47:23.699Z,60.44
2023-04-19T06:52:23.531Z,59.75
2023-04-19T06:57:23.582Z,59.72
2023-04-19T07:02:23.680Z,59.34
2023-04-19T07:07:23.634Z,57.56
2023-04-19T07:12:23.340Z,57.03
2023-04-19T07:17:24.188Z,56.49
2023-04-19T07:22:23.207Z,57.72
2023-04-19T07:27:26.075Z,57.54
2023-04-19T07:32:23.113Z,51.53
2023-04-19T07:37:22.941Z,47.77
2023-04-19T07:42:22.832Z,49.75
2023-04-19T07:47:22.875Z,45.84
2023-04-19T07:52:22.731Z,46.44
2023-04-19T07:57:22.846Z,48.02
2023-04-19T08:02:22.835Z,48.32
2023-04-19T08:07:22.546Z,50.39
2023-04-19T08:12:34.636Z,49.11
2023-04-19T08:17:27.475Z,47.31
2023-04-19T08:22:23.306Z,49.82
2023-04-19T08:27:25.280Z,50.96
2023-04-19T08:32:22.263Z,52.77
2023-04-19T08:37:22.207Z,53.92
2023-04-19T08:42:33.075Z,53.28
2023-04-19T08:47:31.187Z,54.05
2023-04-19T08:52:22.960Z,55.90
2023-04-19T08:57:22.017Z,53.26
2023-04-19T09:02:22.181Z,51.88
2023-04-19T09:07:21.932Z,51.90
2023-04-19T09:12:21.737Z,51.31
2023-04-19T09:17:21.758Z,52.75
2023-04-19T09:22:21.625Z,52.62
2023-04-19T09:27:24.628Z,51.54
2023-04-19T09:32:21.616Z,53.23
2023-04-19T09:42:42.324Z,52.91
2023-04-19T09:47:22.290Z,50.71
2023-04-19T09:52:21.286Z,51.81
2023-04-19T09:57:21.156Z,53.67
2023-04-19T10:02:21.243Z,51.37
2023-04-19T10:12:51.734Z,50.35
2023-04-19T10:17:22.269Z,50.81
2023-04-19T10:22:20.776Z,50.89
2023-04-19T10:27:23.995Z,50.41
2023-04-19T10:32:20.727Z,50.89
2023-04-19T10:37:20.739Z,49.05
2023-04-19T10:42:20.589Z,48.91
2023-04-19T10:47:20.517Z,47.64
2023-04-19T10:52:20.475Z,48.58
2023-04-19T10:57:20.376Z,48.18
2023-04-19T11:02:20.407Z,46.53
2023-04-19T11:07:20.210Z,46.55
2023-04-19T11:12:20.137Z,46.08
2023-04-19T11:17:20.100Z,45.71
2023-04-19T11:22:20.010Z,46.60
2023-04-19T11:27:22.995Z,45.78
2023-04-19T11:32:19.962Z,45.73
2023-04-19T11:37:19.819Z,44.10
2023-04-19T11:42:19.784Z,46.55
2023-04-19T11:47:19.750Z,46.52
2023-04-19T11:52:19.777Z,44.49
2023-04-19T11:57:19.551Z,45.73
2023-04-19T12:02:19.630Z,45.85
2023-04-19T12:07:19.438Z,45.00
2023-04-19T12:12:19.366Z,43.84
2023-04-19T12:17:19.366Z,45.56
2023-04-19T12:22:19.208Z,43.51
2023-04-19T12:27:22.215Z,43.43
2023-04-19T12:32:19.169Z,43.43
2023-04-19T12:37:19.169Z,42.49
2023-04-19T12:42:19.019Z,40.14
2023-04-19T12:47:19.037Z,42.39
2023-04-19T12:52:18.896Z,40.48
2023-04-19T12:57:18.857Z,40.81
2023-04-19T13:02:19.022Z,41.68
2023-04-19T13:07:18.652Z,39.36
2023-04-19T13:12:18.558Z,39.51
2023-04-19T13:17:18.633Z,39.17
2023-04-19T13:22:18.438Z,41.07
2023-04-19T13:27:21.462Z,41.82
2023-04-19T13:32:18.331Z,41.90
2023-04-19T13:37:18.245Z,41.58
2023-04-19T13:42:18.240Z,42.07
2023-04-19T13:47:18.165Z,43.67
2023-04-19T13:52:17.994Z,45.24
2023-04-19T13:57:18.054Z,44.18
2023-04-19T14:02:18.096Z,41.80
2023-04-19T14:07:17.982Z,42.63
2023-04-19T14:12:17.918Z,43.53
2023-04-19T14:17:17.838Z,42.71
2023-04-19T14:22:17.717Z,42.29
2023-04-19T14:27:20.610Z,43.08
2023-04-19T14:32:26.034Z,42.76
2023-04-19T14:37:18.538Z,42.27
2023-04-19T14:42:18.828Z,39.92
2023-04-19T14:47:17.425Z,41.24
2023-04-19T14:52:17.411Z,40.93
2023-04-19T14:57:17.205Z,41.17
2023-04-19T15:02:17.165Z,42.31
2023-04-19T15:07:17.206Z,42.13
2023-04-19T15:12:16.987Z,40.54
2023-04-19T15:17:17.099Z,42.09
2023-04-19T15:22:16.977Z,40.66
2023-04-19T15:27:19.908Z,42.33
2023-04-19T15:32:16.713Z,42.77
2023-04-19T15:37:16.708Z,42.19
2023-04-19T15:42:16.648Z,42.31
2023-04-19T15:47:16.570Z,44.10
2023-04-19T15:52:16.644Z,42.14
2023-04-19T15:57:16.506Z,43.35
2023-04-19T16:02:16.433Z,43.24
2023-04-19T16:07:16.337Z,43.81
2023-04-19T16:12:16.269Z,43.87
2023-04-19T16:17:16.165Z,45.95
2023-04-19T16:22:16.270Z,45.65
2023-04-19T16:27:19.459Z,45.48
2023-04-19T16:32:15.999Z,45.98
2023-04-19T16:37:15.948Z,44.71
2023-04-19T16:42:15.822Z,45.32
2023-04-19T16:47:15.809Z,51.73
2023-04-19T16:52:15.766Z,54.00
2023-04-19T16:57:15.657Z,55.26
2023-04-19T17:02:15.656Z,55.69
2023-04-19T17:07:15.523Z,55.49
2023-04-19T17:12:15.394Z,55.02
2023-04-19T17:17:15.377Z,54.95
2023-04-19T17:22:15.312Z,53.85
2023-04-19T17:27:18.468Z,53.31
2023-04-19T17:32:15.566Z,54.69
2023-04-19T17:37:15.345Z,53.06
2023-04-19T17:42:15.036Z,54.36
2023-04-19T17:47:15.089Z,55.10
2023-04-19T17:52:14.990Z,53.88
2023-04-19T17:57:15.056Z,55.94
2023-04-19T18:02:14.882Z,56.07
2023-04-19T18:07:15.057Z,60.14
2023-04-19T18:12:14.612Z,59.96
2023-04-19T18:17:14.595Z,60.65
2023-04-19T18:22:14.650Z,56.46
2023-04-19T18:27:17.471Z,54.21
2023-04-19T18:32:14.517Z,53.44
2023-04-19T18:37:14.514Z,51.04
2023-04-19T18:42:14.437Z,51.98
2023-04-19T18:47:14.444Z,51.65
2023-04-19T18:52:14.092Z,49.68
2023-04-19T18:57:23.097Z,50.60
2023-04-19T19:02:15.110Z,49.54
2023-04-19T19:07:27.690Z,52.29
2023-04-19T19:12:15.783Z,61.42
2023-04-19T19:17:15.616Z,64.66
2023-04-19T19:27:16.698Z,67.54
2023-04-19T19:32:13.693Z,69.42
2023-04-19T19:37:13.601Z,70.90
2023-04-19T19:42:14.032Z,71.79
2023-04-19T19:47:13.549Z,73.19
2023-04-19T19:52:13.337Z,72.75
2023-04-19T19:58:08.018Z,73.71
2023-04-19T20:02:14.277Z,75.15
2023-04-19T20:12:13.169Z,78.04
2023-04-19T20:17:13.081Z,77.38
2023-04-19T20:22:12.966Z,77.62
2023-04-19T20:27:15.908Z,79.48
2023-04-19T20:32:12.857Z,80.83
2023-04-19T20:37:12.797Z,79.52
2023-04-19T20:42:12.713Z,79.48
2023-04-19T20:47:12.631Z,80.93
2023-04-19T20:52:12.532Z,82.03
2023-04-19T20:57:12.603Z,81.07
2023-04-19T21:02:12.627Z,82.48
2023-04-19T21:07:12.387Z,81.58
2023-04-19T21:12:12.394Z,80.44
2023-04-19T21:17:12.289Z,80.72
2023-04-19T21:22:12.174Z,80.27
2023-04-19T21:27:15.122Z,80.47
2023-04-19T21:32:12.031Z,81.21
2023-04-19T21:37:12.151Z,81.23
2023-04-19T21:42:11.920Z,80.51
2023-04-19T21:47:11.893Z,80.69
2023-04-19T21:52:11.817Z,81.68
2023-04-19T21:57:11.766Z,80.51
2023-04-19T22:02:11.955Z,81.62
2023-04-19T22:07:12.261Z,81.51
2023-04-19T22:12:11.556Z,81.48
2023-04-19T22:17:11.497Z,81.75
2023-04-19T22:22:11.452Z,81.56
2023-04-19T22:27:14.400Z,82.55
2023-04-19T22:32:11.334Z,81.96
2023-04-19T22:37:11.253Z,82.10
2023-04-19T22:42:11.194Z,81.41
2023-04-19T22:47:11.099Z,81.14
2023-04-19T22:52:11.075Z,81.76
2023-04-19T22:57:11.006Z,83.28
2023-04-19T23:02:10.959Z,82.10
2023-04-19T23:07:10.918Z,82.42
2023-04-19T23:12:10.731Z,81.31
2023-04-19T23:17:11.081Z,81.96
2023-04-19T23:22:10.673Z,81.89
2023-04-19T23:27:13.608Z,81.41
2023-04-19T23:32:10.489Z,82.93
2023-04-19T23:37:10.452Z,82.14
2023-04-19T23:42:10.484Z,81.72
2023-04-19T23:47:10.339Z,81.93
2023-04-19T23:52:10.247Z,81.35
2023-04-19T23:57:10.207Z,81.79
